createdAt,value
2017-08-30T00:01:35.976Z,15.92
2017-08-30T00:04:02.604Z,16.03
2017-08-30T00:06:29.252Z,15.98
2017-08-30T00:08:55.688Z,16.07
2017-08-30T00:11:22.324Z,16.02
2017-08-30T00:13:48.950Z,15.92
2017-08-30T00:16:15.543Z,16.01
2017-08-30T00:18:42.235Z,15.93
2017-08-30T00:21:08.728Z,16.01
2017-08-30T00:23:35.516Z,15.92
2017-08-30T00:26:02.153Z,15.89
2017-08-30T00:28:28.704Z,15.78
2017-08-30T00:30:55.430Z,15.85
2017-08-30T00:33:22.057Z,15.81
2017-08-30T00:35:48.555Z,15.77
2017-08-30T00:38:15.343Z,15.80
2017-08-30T00:40:41.961Z,15.66
2017-08-30T00:43:08.620Z,15.59
2017-08-30T00:45:35.261Z,15.63
2017-08-30T00:48:01.889Z,15.61
2017-08-30T00:50:28.387Z,15.51
2017-08-30T00:52:54.947Z,15.47
2017-08-30T00:55:21.395Z,15.42
2017-08-30T00:57:47.884Z,15.30
2017-08-30T01:00:14.423Z,15.25
2017-08-30T01:02:41.111Z,15.28
2017-08-30T01:05:07.732Z,15.24
2017-08-30T01:07:34.348Z,15.21
2017-08-30T01:10:00.846Z,15.19
2017-08-30T01:12:27.433Z,15.16
2017-08-30T01:14:54.053Z,15.20
2017-08-30T01:17:20.534Z,15.20
2017-08-30T01:19:47.015Z,15.11
2017-08-30T01:22:13.580Z,15.09
2017-08-30T01:24:40.241Z,15.12
2017-08-30T01:27:06.858Z,15.16
2017-08-30T01:29:33.302Z,15.21
2017-08-30T01:31:59.848Z,15.24
2017-08-30T01:34:26.459Z,15.27
2017-08-30T01:36:53.083Z,15.26
2017-08-30T01:39:19.744Z,15.36
2017-08-30T01:41:46.264Z,15.44
2017-08-30T01:44:12.881Z,15.42
2017-08-30T01:46:39.324Z,15.44
2017-08-30T01:49:05.766Z,15.36
2017-08-30T01:51:32.127Z,15.44
2017-08-30T01:53:58.747Z,15.49
2017-08-30T01:56:25.409Z,15.37
2017-08-30T01:58:52.049Z,15.33
2017-08-30T02:01:18.671Z,15.32
2017-08-30T02:03:45.114Z,15.20
2017-08-30T02:06:11.706Z,15.18
2017-08-30T02:08:38.396Z,15.18
2017-08-30T02:11:05.033Z,15.10
2017-08-30T02:13:31.632Z,15.07
2017-08-30T02:15:58.103Z,14.99
2017-08-30T02:18:24.537Z,14.95
2017-08-30T02:20:51.131Z,14.94
2017-08-30T02:23:17.798Z,14.98
2017-08-30T02:25:44.453Z,15.03
2017-08-30T02:28:11.033Z,15.04
2017-08-30T02:30:37.729Z,15.06
2017-08-30T02:33:04.220Z,15.06
2017-08-30T02:35:31.006Z,15.00
2017-08-30T02:37:57.600Z,15.05
2017-08-30T02:40:24.146Z,15.26
2017-08-30T02:42:50.920Z,15.40
2017-08-30T02:45:17.551Z,15.37
2017-08-30T02:47:44.196Z,15.40
2017-08-30T02:50:10.835Z,15.34
2017-08-30T02:52:37.381Z,15.38
2017-08-30T02:55:04.094Z,15.37
2017-08-30T02:57:30.687Z,15.36
2017-08-30T02:59:57.354Z,15.39
2017-08-30T03:02:23.996Z,15.23
2017-08-30T03:04:50.612Z,15.16
2017-08-30T03:07:17.280Z,15.10
2017-08-30T03:09:43.797Z,15.08
2017-08-30T03:12:10.581Z,15.14
2017-08-30T03:14:37.184Z,15.03
2017-08-30T03:17:03.649Z,15.10
2017-08-30T03:19:30.239Z,15.07
2017-08-30T03:21:56.905Z,15.19
2017-08-30T03:24:23.562Z,15.12
2017-08-30T03:26:49.992Z,15.03
2017-08-30T03:29:16.484Z,14.87
2017-08-30T03:31:42.925Z,14.71
2017-08-30T03:34:09.325Z,14.71
2017-08-30T03:36:35.725Z,14.72
2017-08-30T03:39:02.356Z,14.66
2017-08-30T03:41:28.968Z,14.60
2017-08-30T03:43:55.634Z,14.78
2017-08-30T03:46:22.128Z,14.70
2017-08-30T03:48:48.509Z,14.70
2017-08-30T03:51:14.811Z,14.66
2017-08-30T03:53:41.252Z,14.64
2017-08-30T03:56:07.871Z,14.76
2017-08-30T03:58:34.313Z,14.74
2017-08-30T04:01:00.851Z,14.77
2017-08-30T04:03:27.371Z,14.86
2017-08-30T04:05:53.912Z,14.93
2017-08-30T04:08:20.588Z,15.01
2017-08-30T04:10:47.232Z,15.22
2017-08-30T04:13:13.862Z,15.38
2017-08-30T04:15:40.356Z,15.49
2017-08-30T04:18:06.896Z,15.82
2017-08-30T04:20:33.366Z,16.08
2017-08-30T04:23:00.012Z,16.26
2017-08-30T04:25:26.596Z,16.48
2017-08-30T04:27:53.263Z,16.47
2017-08-30T04:30:19.920Z,16.55
2017-08-30T04:32:46.547Z,16.59
2017-08-30T04:35:12.849Z,16.71
2017-08-30T04:37:39.407Z,16.91
2017-08-30T04:40:06.075Z,17.26
2017-08-30T04:42:32.708Z,17.75
2017-08-30T04:44:59.332Z,18.24
2017-08-30T04:47:25.776Z,18.75
2017-08-30T04:49:52.386Z,19.16
2017-08-30T04:52:19.055Z,19.92
2017-08-30T04:54:45.659Z,20.66
2017-08-30T04:57:12.338Z,21.35
2017-08-30T04:59:38.808Z,22.00
2017-08-30T05:02:05.350Z,22.73
2017-08-30T06:20:25.306Z,32.41
2017-08-30T06:22:51.792Z,32.39
2017-08-30T06:25:18.158Z,31.98
2017-08-30T06:27:45.014Z,32.58
2017-08-30T06:30:11.430Z,32.85
2017-08-30T06:32:37.869Z,32.61
2017-08-30T06:35:04.513Z,32.93
2017-08-30T06:37:31.001Z,31.47
2017-08-30T06:39:57.641Z,30.95
2017-08-30T06:42:24.325Z,31.90
2017-08-30T06:44:50.948Z,33.18
2017-08-30T06:47:17.444Z,34.03
2017-08-30T06:49:44.239Z,33.32
2017-08-30T06:52:10.671Z,33.61
2017-08-30T06:54:37.309Z,32.63
2017-08-30T06:57:03.948Z,32.88
2017-08-30T06:59:30.589Z,33.20
2017-08-30T07:01:57.220Z,32.62
2017-08-30T07:04:23.811Z,32.91
2017-08-30T07:06:50.500Z,32.61
2017-08-30T07:09:16.998Z,31.33
2017-08-30T07:11:43.776Z,32.59
2017-08-30T07:14:10.406Z,32.95
2017-08-30T07:16:36.899Z,33.72
2017-08-30T07:19:03.437Z,33.90
2017-08-30T07:21:30.126Z,33.85
2017-08-30T07:23:56.766Z,33.50
2017-08-30T07:26:23.398Z,33.65
2017-08-30T07:28:50.009Z,33.84
2017-08-30T07:31:16.652Z,33.67
2017-08-30T07:33:43.268Z,33.94
2017-08-30T07:36:09.747Z,33.93
2017-08-30T07:38:36.176Z,34.54
2017-08-30T07:41:02.776Z,33.66
2017-08-30T07:43:29.457Z,33.55
2017-08-30T07:45:56.096Z,34.10
2017-08-30T07:48:22.723Z,34.53
2017-08-30T07:50:49.217Z,34.53
2017-08-30T07:53:15.661Z,34.37
2017-08-30T07:55:42.308Z,34.06
2017-08-30T07:58:09.070Z,34.03
2017-08-30T08:00:35.589Z,34.03
2017-08-30T08:03:02.328Z,33.60
2017-08-30T08:05:28.997Z,33.19
2017-08-30T08:07:55.463Z,32.85
2017-08-30T08:10:22.030Z,32.21
2017-08-30T08:12:48.707Z,32.36
2017-08-30T08:15:15.339Z,31.98
2017-08-30T08:17:41.932Z,33.57
2017-08-30T08:20:08.478Z,34.40
2017-08-30T08:22:35.242Z,34.82
2017-08-30T08:25:01.838Z,35.36
2017-08-30T08:27:28.534Z,35.03
2017-08-30T08:29:55.168Z,35.23
2017-08-30T08:32:22.017Z,34.41
2017-08-30T08:34:48.447Z,34.87
2017-08-30T08:37:14.948Z,35.28
2017-08-30T08:39:41.724Z,35.06
2017-08-30T08:42:08.339Z,34.61
2017-08-30T08:44:34.849Z,34.23
2017-08-30T08:47:01.491Z,34.50
2017-08-30T08:49:28.031Z,34.81
2017-08-30T08:51:54.577Z,33.84
2017-08-30T08:54:21.315Z,32.11
2017-08-30T08:56:47.835Z,32.27
2017-08-30T08:59:14.281Z,31.51
2017-08-30T09:01:41.058Z,31.33
2017-08-30T09:04:07.659Z,31.90
2017-08-30T09:06:34.180Z,32.85
2017-08-30T09:09:00.974Z,33.96
2017-08-30T09:11:27.588Z,33.49
2017-08-30T09:13:54.107Z,32.56
2017-08-30T09:16:20.875Z,30.96
2017-08-30T09:18:47.524Z,30.12
2017-08-30T09:21:13.834Z,29.50
2017-08-30T09:23:40.575Z,29.06
2017-08-30T09:26:07.066Z,29.82
2017-08-30T09:28:33.512Z,30.71
2017-08-30T09:30:59.896Z,31.95
2017-08-30T09:33:26.518Z,32.80
2017-08-30T09:35:53.176Z,31.50
2017-08-30T09:38:19.812Z,30.81
2017-08-30T09:40:46.422Z,30.91
2017-08-30T09:43:13.088Z,30.94
2017-08-30T09:45:39.727Z,31.86
2017-08-30T09:48:06.157Z,32.34
2017-08-30T09:50:32.917Z,33.67
2017-08-30T09:52:59.609Z,34.57
2017-08-30T09:55:26.127Z,35.07
2017-08-30T09:57:52.893Z,34.44
2017-08-30T10:00:19.413Z,33.19
2017-08-30T10:02:45.783Z,31.77
2017-08-30T10:05:12.214Z,32.44
2017-08-30T10:07:38.836Z,33.71
2017-08-30T10:10:05.287Z,33.74
2017-08-30T10:12:31.927Z,33.10
2017-08-30T10:14:58.564Z,34.29
2017-08-30T10:17:25.185Z,35.18
2017-08-30T10:19:51.701Z,35.56
2017-08-30T10:22:18.467Z,35.73
2017-08-30T10:24:44.961Z,35.17
2017-08-30T10:27:11.631Z,34.87
2017-08-30T10:29:38.393Z,34.11
2017-08-30T10:32:04.824Z,33.71
2017-08-30T10:34:31.670Z,33.56
2017-08-30T10:36:58.148Z,34.61
2017-08-30T10:39:24.914Z,34.40
2017-08-30T10:41:51.556Z,34.25
2017-08-30T10:44:18.077Z,33.81
2017-08-30T10:46:44.860Z,32.89
2017-08-30T10:49:11.703Z,34.54
2017-08-30T10:51:38.138Z,34.36
2017-08-30T10:54:04.766Z,35.08
2017-08-30T10:56:31.410Z,34.19
2017-08-30T10:58:57.928Z,34.21
2017-08-30T11:01:24.686Z,33.37
2017-08-30T11:03:51.529Z,33.17
2017-08-30T11:06:18.154Z,32.24
2017-08-30T11:08:44.676Z,32.09
2017-08-30T11:11:11.413Z,30.77
2017-08-30T11:13:37.880Z,29.67
2017-08-30T11:16:04.300Z,28.95
2017-08-30T11:18:30.889Z,28.88
2017-08-30T11:20:57.559Z,28.33
2017-08-30T11:23:24.232Z,28.03
2017-08-30T11:25:50.864Z,28.59
2017-08-30T11:28:17.485Z,29.27
2017-08-30T11:30:43.981Z,31.17
2017-08-30T11:33:10.745Z,32.69
2017-08-30T11:35:37.265Z,33.98
2017-08-30T11:38:04.029Z,33.98
2017-08-30T11:40:30.648Z,34.01
2017-08-30T11:42:57.330Z,33.43
2017-08-30T11:45:23.972Z,31.44
2017-08-30T11:47:50.478Z,29.91
2017-08-30T11:50:16.993Z,29.39
2017-08-30T11:52:43.677Z,28.87
2017-08-30T11:55:10.280Z,28.66
2017-08-30T11:57:36.944Z,28.01
2017-08-30T12:00:03.596Z,27.87
2017-08-30T12:02:30.230Z,27.52
2017-08-30T12:04:56.845Z,27.64
2017-08-30T12:07:23.507Z,27.75
2017-08-30T12:09:49.953Z,27.66
2017-08-30T12:12:16.364Z,27.91
2017-08-30T12:14:42.796Z,28.07
2017-08-30T12:17:09.383Z,29.63
2017-08-30T12:19:36.075Z,31.03
2017-08-30T12:22:02.721Z,32.66
2017-08-30T12:24:29.463Z,34.07
2017-08-30T12:26:56.203Z,34.42
2017-08-30T12:29:22.841Z,34.33
2017-08-30T12:31:49.662Z,33.67
2017-08-30T12:34:16.253Z,33.61
2017-08-30T12:36:42.755Z,33.19
2017-08-30T12:39:09.200Z,33.71
2017-08-30T12:41:35.604Z,32.55
2017-08-30T12:44:01.979Z,34.71
2017-08-30T12:46:28.424Z,34.86
2017-08-30T12:48:54.824Z,36.73
2017-08-30T12:51:21.224Z,36.16
2017-08-30T12:53:47.661Z,34.72
2017-08-30T12:56:14.053Z,33.45
2017-08-30T12:58:40.436Z,33.85
2017-08-30T13:01:06.888Z,33.58
2017-08-30T13:03:33.269Z,33.66
2017-08-30T13:05:59.639Z,34.54
2017-08-30T13:08:26.069Z,34.09
2017-08-30T13:10:52.459Z,34.15
2017-08-30T13:13:18.847Z,32.97
2017-08-30T13:15:45.286Z,31.59
2017-08-30T13:18:11.665Z,31.50
2017-08-30T13:20:37.980Z,30.34
2017-08-30T13:23:04.341Z,29.79
2017-08-30T13:25:30.646Z,29.37
2017-08-30T13:27:56.980Z,28.76
2017-08-30T13:30:23.365Z,28.62
2017-08-30T13:32:49.698Z,28.07
2017-08-30T13:35:16.085Z,27.78
2017-08-30T13:37:42.444Z,27.66
2017-08-30T13:40:08.769Z,27.49
2017-08-30T13:45:07.958Z,27.10
2017-08-30T13:47:34.644Z,26.79
2017-08-30T13:50:01.267Z,26.66
2017-08-30T13:52:27.718Z,26.72
2017-08-30T13:54:54.338Z,26.80
2017-08-30T13:57:20.848Z,26.79
2017-08-30T13:59:47.411Z,26.85
2017-08-30T14:02:14.062Z,26.87
2017-08-30T14:04:40.698Z,26.72
2017-08-30T14:07:07.287Z,26.64
2017-08-30T14:09:33.979Z,26.57
2017-08-30T14:12:00.618Z,26.72
2017-08-30T14:14:27.208Z,26.82
2017-08-30T14:16:53.880Z,26.82
2017-08-30T14:19:20.380Z,26.81
2017-08-30T14:21:46.915Z,26.83
2017-08-30T14:24:13.376Z,26.91
2017-08-30T14:26:39.833Z,27.10
2017-08-30T14:29:06.416Z,27.09
2017-08-30T14:31:33.106Z,26.90
2017-08-30T14:33:59.726Z,26.72
2017-08-30T14:36:26.169Z,26.55
2017-08-30T14:38:52.812Z,26.63
2017-08-30T14:41:19.305Z,26.59
2017-08-30T14:43:45.888Z,26.47
2017-08-30T14:46:12.527Z,26.56
2017-08-30T14:48:38.958Z,26.32
2017-08-30T14:51:05.598Z,26.34
2017-08-30T14:53:32.215Z,26.22
2017-08-30T14:55:58.673Z,26.16
2017-08-30T14:58:25.273Z,26.13
2017-08-30T15:00:51.945Z,25.98
2017-08-30T15:03:18.557Z,25.83
2017-08-30T15:05:44.919Z,25.83
2017-08-30T15:08:11.451Z,25.81
2017-08-30T15:10:37.876Z,25.76
2017-08-30T15:13:04.319Z,25.82
2017-08-30T15:15:30.956Z,25.71
2017-08-30T15:17:57.588Z,25.72
2017-08-30T15:20:24.178Z,25.69
2017-08-30T15:22:50.821Z,25.60
2017-08-30T15:25:17.508Z,25.50
2017-08-30T15:27:44.128Z,25.48
2017-08-30T15:30:10.783Z,25.46
2017-08-30T15:32:37.268Z,25.39
2017-08-30T15:35:03.826Z,25.40
2017-08-30T15:37:30.476Z,25.30
2017-08-30T15:39:57.127Z,25.24
2017-08-30T15:42:23.655Z,25.19
2017-08-30T15:44:49.940Z,25.12
2017-08-30T15:47:16.518Z,25.06
2017-08-30T15:49:42.845Z,24.92
2017-08-30T15:52:09.276Z,24.81
2017-08-30T15:54:35.930Z,24.80
2017-08-30T15:57:02.369Z,24.65
2017-08-30T15:59:28.663Z,24.63
2017-08-30T16:01:55.120Z,24.43
2017-08-30T16:04:21.454Z,24.38
2017-08-30T16:06:47.887Z,24.24
2017-08-30T16:09:14.522Z,24.26
2017-08-30T16:11:40.963Z,24.20
2017-08-30T16:14:07.400Z,24.14
2017-08-30T16:16:33.823Z,24.13
2017-08-30T16:19:00.259Z,24.01
2017-08-30T16:21:26.879Z,23.96
2017-08-30T16:23:53.342Z,23.90
2017-08-30T16:26:19.965Z,23.84
2017-08-30T16:28:46.616Z,23.72
2017-08-30T16:31:13.348Z,23.63
2017-08-30T16:33:39.788Z,23.50
2017-08-30T16:36:06.074Z,23.34
2017-08-30T16:38:32.413Z,23.31
2017-08-30T16:40:58.871Z,23.23
2017-08-30T16:43:25.178Z,23.10
2017-08-30T16:45:51.515Z,22.90
2017-08-30T16:48:17.816Z,22.74
2017-08-30T16:50:44.162Z,22.65
2017-08-30T16:53:10.529Z,22.46
2017-08-30T16:55:36.844Z,22.28
2017-08-30T16:58:03.148Z,22.06
2017-08-30T17:00:29.522Z,21.87
2017-08-30T17:02:55.832Z,21.62
2017-08-30T17:05:22.122Z,21.50
2017-08-30T17:07:48.468Z,21.36
2017-08-30T17:10:14.756Z,21.16
2017-08-30T17:12:41.053Z,20.98
2017-08-30T17:15:07.415Z,20.89
2017-08-30T17:17:33.712Z,20.78
2017-08-30T17:19:59.997Z,20.65
2017-08-30T17:22:26.342Z,20.58
2017-08-30T17:24:52.637Z,20.48
2017-08-30T17:27:18.929Z,20.29
2017-08-30T17:29:45.300Z,20.18
2017-08-30T17:32:11.608Z,20.05
2017-08-30T17:34:37.952Z,20.00
2017-08-30T17:37:04.302Z,19.98
2017-08-30T17:39:30.601Z,19.88
2017-08-30T17:41:56.928Z,19.81
2017-08-30T17:44:23.288Z,19.82
2017-08-30T17:46:49.604Z,19.70
2017-08-30T17:49:15.912Z,19.76
2017-08-30T17:51:42.271Z,19.61
2017-08-30T17:54:08.576Z,19.53
2017-08-30T17:56:34.889Z,19.48
2017-08-30T17:59:01.269Z,19.35
2017-08-30T18:01:27.562Z,19.32
2017-08-30T18:03:53.859Z,19.29
2017-08-30T18:06:20.211Z,19.19
2017-08-30T18:08:46.523Z,19.04
2017-08-30T18:11:12.828Z,19.02
2017-08-30T18:13:39.181Z,18.96
2017-08-30T18:16:05.467Z,18.89
2017-08-30T18:18:31.754Z,18.77
2017-08-30T18:20:58.107Z,18.77
2017-08-30T18:23:24.399Z,18.51
2017-08-30T18:25:50.689Z,18.41
2017-08-30T18:28:17.048Z,18.39
2017-08-30T18:30:43.345Z,18.34
2017-08-30T18:33:09.642Z,18.42
2017-08-30T18:35:35.992Z,18.33
2017-08-30T18:38:02.284Z,18.12
2017-08-30T18:40:28.574Z,18.11
2017-08-30T18:42:54.936Z,18.09
2017-08-30T18:45:21.238Z,17.90
2017-08-30T18:47:47.548Z,17.70
2017-08-30T18:50:13.877Z,17.68
2017-08-30T18:52:40.167Z,17.81
2017-08-30T18:55:06.437Z,17.83
2017-08-30T18:57:32.803Z,17.82
2017-08-30T18:59:59.088Z,17.83
2017-08-30T19:02:25.391Z,17.63
2017-08-30T19:04:51.961Z,17.58
2017-08-30T19:07:18.253Z,17.65
2017-08-30T19:09:44.550Z,17.59
2017-08-30T19:12:11.158Z,17.69
2017-08-30T19:14:37.833Z,17.68
2017-08-30T19:17:04.270Z,17.44
2017-08-30T19:19:30.704Z,17.13
2017-08-30T19:21:56.993Z,16.93
2017-08-30T19:24:23.273Z,16.78
2017-08-30T19:26:49.608Z,16.62
2017-08-30T19:29:15.902Z,16.53
2017-08-30T19:31:42.185Z,16.42
2017-08-30T19:34:08.520Z,16.40
2017-08-30T19:36:34.832Z,16.35
2017-08-30T19:39:01.148Z,16.39
2017-08-30T19:41:27.485Z,16.32
2017-08-30T19:43:53.773Z,16.30
2017-08-30T19:46:20.070Z,16.18
2017-08-30T19:48:46.424Z,16.10
2017-08-30T19:51:12.711Z,16.09
2017-08-30T19:53:38.996Z,16.13
2017-08-30T19:56:05.334Z,16.13
2017-08-30T19:58:31.978Z,16.18
2017-08-30T20:00:58.437Z,16.20
2017-08-30T20:03:25.071Z,16.21
2017-08-30T20:05:51.502Z,16.16
2017-08-30T20:08:18.119Z,16.16
2017-08-30T20:10:44.644Z,16.10
2017-08-30T20:13:10.927Z,16.08
2017-08-30T20:15:37.353Z,16.05
2017-08-30T20:18:03.990Z,16.02
2017-08-30T20:20:30.418Z,15.95
2017-08-30T20:22:56.857Z,15.90
2017-08-30T20:25:23.288Z,15.86
2017-08-30T20:27:49.910Z,15.80
2017-08-30T20:30:16.213Z,15.75
2017-08-30T20:32:42.570Z,15.68
2017-08-30T20:35:08.852Z,15.66
2017-08-30T20:37:35.159Z,15.64
2017-08-30T20:40:01.506Z,15.63
2017-08-30T20:42:27.805Z,15.61
2017-08-30T20:44:54.093Z,15.56
2017-08-30T20:47:20.427Z,15.52
2017-08-30T20:49:46.729Z,15.51
2017-08-30T20:52:13.034Z,15.43
2017-08-30T20:54:39.391Z,15.43
2017-08-30T20:57:05.706Z,15.49
2017-08-30T20:59:31.995Z,15.42
2017-08-30T21:01:58.345Z,15.31
2017-08-30T21:04:24.789Z,15.28
2017-08-30T21:06:51.408Z,15.29
2017-08-30T21:09:17.856Z,15.18
2017-08-30T21:11:44.491Z,15.02
2017-08-30T21:14:10.946Z,15.07
2017-08-30T21:16:37.521Z,15.06
2017-08-30T21:19:04.002Z,15.03
2017-08-30T21:21:30.604Z,14.96
2017-08-30T21:23:57.065Z,14.93
2017-08-30T21:26:23.502Z,14.95
2017-08-30T21:28:50.133Z,14.85
2017-08-30T21:31:16.654Z,14.89
2017-08-30T21:33:43.009Z,14.87
2017-08-30T21:36:09.447Z,14.85
2017-08-30T21:38:36.087Z,14.82
2017-08-30T21:41:02.696Z,14.76
2017-08-30T21:43:29.360Z,14.73
2017-08-30T21:45:55.832Z,14.68
2017-08-30T21:48:22.225Z,14.66
2017-08-30T21:50:48.540Z,14.62
2017-08-30T21:53:15.298Z,14.58
2017-08-30T21:55:41.915Z,14.54
2017-08-30T21:58:08.367Z,14.53
2017-08-30T22:00:34.748Z,14.49
2017-08-30T22:03:01.240Z,14.43
2017-08-30T22:05:27.866Z,14.42
2017-08-30T22:07:54.456Z,14.43
2017-08-30T22:10:21.149Z,14.37
2017-08-30T22:12:47.571Z,14.35
2017-08-30T22:15:14.020Z,14.31
2017-08-30T22:17:40.451Z,14.29
2017-08-30T22:20:07.072Z,14.27
2017-08-30T22:22:33.509Z,14.22
2017-08-30T22:24:59.957Z,14.18
2017-08-30T22:27:26.446Z,14.17
2017-08-30T22:29:52.984Z,14.11
2017-08-30T22:32:19.467Z,14.07
2017-08-30T22:34:45.888Z,14.02
2017-08-30T22:37:12.319Z,13.97
2017-08-30T22:39:38.763Z,13.89
2017-08-30T22:42:05.196Z,13.86
2017-08-30T22:44:31.635Z,13.78
2017-08-30T22:46:58.267Z,13.82
2017-08-30T22:49:24.867Z,13.78
2017-08-30T22:51:51.388Z,13.76
2017-08-30T22:54:17.761Z,13.80
2017-08-30T22:56:44.411Z,13.75
2017-08-30T22:59:11.048Z,13.65
2017-08-30T23:01:37.491Z,13.65
2017-08-30T23:04:04.096Z,13.63
2017-08-30T23:06:30.711Z,13.58
2017-08-30T23:08:57.396Z,13.55
2017-08-30T23:11:23.898Z,13.57
2017-08-30T23:13:50.672Z,13.55
2017-08-30T23:16:17.162Z,13.57
2017-08-30T23:18:43.708Z,13.52
2017-08-30T23:21:10.236Z,13.49
2017-08-30T23:23:36.755Z,13.48
2017-08-30T23:26:03.451Z,13.43
2017-08-30T23:28:30.041Z,13.36
2017-08-30T23:30:56.729Z,13.29
2017-08-30T23:33:23.202Z,13.28
2017-08-30T23:35:49.765Z,13.25
2017-08-30T23:38:16.434Z,13.21
2017-08-30T23:40:43.076Z,13.19
2017-08-30T23:43:09.716Z,13.15
2017-08-30T23:45:36.001Z,13.12
2017-08-30T23:48:02.298Z,13.08
2017-08-30T23:50:28.806Z,13.05
2017-08-30T23:52:55.433Z,13.05
2017-08-30T23:55:21.735Z,13.01
2017-08-30T23:57:48.315Z,12.97
